Time;durP1;ratioP1;P1;durP2;ratioP2;P2;SDS_P1;SDS_P2;PMS_P1;PMS_P2;Temp;Humidity;BMP_temperature;BMP_pressure;BME280_temperature;BME280_humidity;BME280_pressure;Samples;Min_cycle;Max_cycle;Signal;HPM_P1;HPM_P2
2022/11/22 00:02:22;;;;;;;21.77;11.75;;;3.80;99.90;;;;;;4950115;28;20304;-89
2022/11/22 00:04:48;;;;;;;21.38;11.00;;;3.90;99.90;;;;;;4940257;28;20043;-88
2022/11/22 00:07:13;;;;;;;23.48;11.52;;;3.80;99.90;;;;;;4960028;28;20043;-88
2022/11/22 00:09:39;;;;;;;20.88;11.13;;;3.80;99.90;;;;;;4954401;28;20133;-89
2022/11/22 00:12:05;;;;;;;21.00;10.52;;;3.90;99.90;;;;;;4946333;28;20055;-88
2022/11/22 00:14:31;;;;;;;23.42;12.18;;;3.90;99.90;;;;;;4946381;28;20047;-94
2022/11/22 00:16:56;;;;;;;22.73;10.02;;;3.90;99.90;;;;;;4945196;28;20399;-89
2022/11/22 00:19:22;;;;;;;21.45;11.77;;;3.90;99.90;;;;;;4940258;28;20035;-89
2022/11/22 00:21:48;;;;;;;21.63;10.90;;;3.90;99.90;;;;;;4940097;28;20055;-87
2022/11/22 00:24:13;;;;;;;21.55;10.68;;;3.90;99.90;;;;;;4944925;28;20043;-90
2022/11/22 00:26:39;;;;;;;20.50;11.40;;;4.00;99.90;;;;;;4930340;28;20062;-88
2022/11/22 00:29:05;;;;;;;23.95;11.35;;;4.00;99.90;;;;;;4948164;28;20589;-90
2022/11/22 00:31:31;;;;;;;23.33;11.57;;;4.00;99.90;;;;;;4943384;28;20043;-89
2022/11/22 00:33:56;;;;;;;20.35;11.07;;;4.00;99.90;;;;;;4941135;28;20051;-89
2022/11/22 00:36:22;;;;;;;23.90;11.40;;;4.00;99.90;;;;;;4944216;28;20053;-88
2022/11/22 00:38:48;;;;;;;21.80;10.95;;;4.00;99.90;;;;;;4942350;28;20050;-87
2022/11/22 00:41:14;;;;;;;24.90;11.88;;;4.10;99.90;;;;;;4958244;28;20122;-87
2022/11/22 00:43:40;;;;;;;21.20;11.13;;;4.10;99.90;;;;;;4945452;28;20122;-87
2022/11/22 00:46:05;;;;;;;21.83;10.55;;;4.10;99.90;;;;;;4944863;28;20359;-87
2022/11/22 00:48:31;;;;;;;25.60;11.93;;;4.10;99.90;;;;;;4950402;28;20058;-86
2022/11/22 00:50:57;;;;;;;24.02;11.60;;;4.10;99.90;;;;;;4941934;29;20047;-87
2022/11/22 00:53:23;;;;;;;23.85;12.13;;;4.10;99.90;;;;;;4960333;28;20452;-88
2022/11/22 00:55:49;;;;;;;24.15;12.05;;;4.00;99.90;;;;;;4957045;28;20063;-86
2022/11/22 00:58:15;;;;;;;22.35;12.35;;;4.10;99.90;;;;;;4975409;28;20051;-89
2022/11/22 01:00:40;;;;;;;23.80;12.60;;;4.00;99.90;;;;;;4958616;28;20039;-87
2022/11/22 01:03:10;;;;;;;24.63;12.13;;;4.00;99.90;;;;;;4951567;28;20035;-87
2022/11/22 01:05:35;;;;;;;22.08;11.45;;;4.00;99.90;;;;;;4969122;28;20038;-87
2022/11/22 01:08:01;;;;;;;23.77;11.88;;;4.00;99.90;;;;;;4933111;28;20047;-88
2022/11/22 01:10:27;;;;;;;25.75;13.27;;;4.00;99.90;;;;;;4969842;28;20062;-88
2022/11/22 01:12:52;;;;;;;21.05;9.90;;;4.00;99.90;;;;;;4961525;28;20528;-88
2022/11/22 01:15:18;;;;;;;20.73;10.95;;;4.00;99.90;;;;;;4950288;28;20102;-86
2022/11/22 01:17:43;;;;;;;22.63;11.77;;;4.00;99.90;;;;;;4962993;28;20038;-87
2022/11/22 01:20:09;;;;;;;21.20;11.25;;;3.90;99.90;;;;;;4960350;28;20043;-87
2022/11/22 01:22:35;;;;;;;20.80;10.20;;;4.00;99.90;;;;;;4943720;28;20045;-89
2022/11/22 01:25:00;;;;;;;22.02;9.82;;;3.90;99.90;;;;;;4952471;28;20399;-86
2022/11/22 01:27:26;;;;;;;22.10;10.57;;;4.00;99.90;;;;;;4971634;28;20126;-88
2022/11/22 01:29:51;;;;;;;26.00;11.88;;;4.00;99.90;;;;;;4947445;28;20041;-89
2022/11/22 01:32:17;;;;;;;23.08;11.88;;;4.00;99.90;;;;;;4948014;28;20051;-87
2022/11/22 01:34:42;;;;;;;24.00;11.73;;;3.90;99.90;;;;;;4946588;28;20451;-89
2022/11/22 01:37:08;;;;;;;23.13;10.88;;;3.90;99.90;;;;;;4965902;28;20041;-87
2022/11/22 01:39:34;;;;;;;24.52;13.38;;;4.00;99.90;;;;;;4967708;28;20039;-88
2022/11/22 01:41:59;;;;;;;25.02;11.95;;;4.00;99.90;;;;;;4944979;28;20473;-88
2022/11/22 01:44:28;;;;;;;23.98;11.65;;;4.00;99.90;;;;;;4952668;28;20050;-87
2022/11/22 01:47:08;;;;;;;23.60;11.63;;;4.00;99.90;;;;;;4963518;28;20406;-88
2022/11/22 01:49:59;;;;;;;23.98;11.73;;;4.00;99.90;;;;;;4953247;28;20671;-86
2022/11/22 01:52:27;;;;;;;21.60;10.93;;;4.00;99.90;;;;;;4965895;28;20043;-87
2022/11/22 01:54:59;;;;;;;23.33;11.48;;;4.00;99.90;;;;;;4964578;28;20055;-87
2022/11/22 01:57:31;;;;;;;22.23;10.05;;;4.00;99.90;;;;;;4940443;28;20515;-88
2022/11/22 02:00:05;;;;;;;23.83;11.63;;;4.00;99.90;;;;;;4948611;28;20360;-89
2022/11/22 02:02:33;;;;;;;23.70;11.18;;;4.00;99.90;;;;;;4966762;28;20043;-87
2022/11/22 02:05:04;;;;;;;22.05;10.77;;;4.00;99.90;;;;;;4947786;28;20550;-88
2022/11/22 02:07:44;;;;;;;21.90;10.18;;;4.00;99.90;;;;;;4962687;28;20047;-88
2022/11/22 02:10:10;;;;;;;24.33;11.20;;;4.00;99.90;;;;;;4951525;28;20057;-88
2022/11/22 02:12:36;;;;;;;22.50;10.00;;;4.00;99.90;;;;;;4943516;28;20051;-87
2022/11/22 02:15:02;;;;;;;24.73;11.65;;;4.00;99.90;;;;;;4945229;28;20102;-87
2022/11/22 02:17:28;;;;;;;24.25;11.57;;;4.00;99.90;;;;;;4946800;28;20055;-87
2022/11/22 02:19:54;;;;;;;24.45;12.13;;;4.00;99.90;;;;;;4944185;28;20077;-87
2022/11/22 02:22:34;;;;;;;21.52;11.45;;;4.00;99.90;;;;;;4964116;28;20065;-87
2022/11/22 02:25:41;;;;;;;25.20;11.95;;;4.10;99.90;;;;;;4931459;28;20038;-87
2022/11/22 02:28:12;;;;;;;23.48;12.32;;;4.10;99.90;;;;;;4897525;29;20467;-86
2022/11/22 02:30:39;;;;;;;20.67;11.48;;;4.10;99.90;;;;;;4905640;29;20213;-87
2022/11/22 02:33:06;;;;;;;21.80;11.05;;;4.10;99.90;;;;;;4919436;29;20095;-86
2022/11/22 02:35:32;;;;;;;23.15;10.43;;;4.10;99.90;;;;;;4913579;29;20086;-87
2022/11/22 02:38:16;;;;;;;25.73;11.32;;;4.10;99.90;;;;;;4922270;29;20100;-87
2022/11/22 02:41:05;;;;;;;23.30;11.48;;;4.20;99.90;;;;;;4911701;29;20114;-87
2022/11/22 02:43:34;;;;;;;23.48;11.80;;;4.20;99.90;;;;;;4914801;29;20639;-89
2022/11/22 02:46:08;;;;;;;24.95;12.07;;;4.20;99.90;;;;;;4921756;29;20064;-87
2022/11/22 02:48:39;;;;;;;25.75;11.80;;;4.20;99.90;;;;;;4914910;29;20044;-87
2022/11/22 02:51:04;;;;;;;21.50;11.35;;;4.20;99.90;;;;;;4919202;29;20044;-87
2022/11/22 02:53:30;;;;;;;25.13;11.77;;;4.20;99.90;;;;;;4903505;29;20062;-87
2022/11/22 02:55:56;;;;;;;23.15;11.25;;;4.20;99.90;;;;;;4905724;29;20113;-88
2022/11/22 02:58:21;;;;;;;21.80;11.65;;;4.20;99.90;;;;;;4916153;29;20138;-87
2022/11/22 03:00:47;;;;;;;23.02;10.23;;;4.20;99.90;;;;;;4945377;28;20100;-89
2022/11/22 03:03:13;;;;;;;21.95;10.65;;;4.30;99.90;;;;;;4959616;28;20050;-87
2022/11/22 03:05:38;;;;;;;24.42;11.35;;;4.30;99.90;;;;;;4943847;28;20047;-87
2022/11/22 03:08:04;;;;;;;26.35;12.20;;;4.30;99.90;;;;;;4946972;28;20054;-86
2022/11/22 03:10:30;;;;;;;25.80;11.70;;;4.30;99.90;;;;;;4961485;28;20050;-86
2022/11/22 03:12:57;;;;;;;22.17;11.60;;;4.30;99.90;;;;;;4940206;28;20097;-88
2022/11/22 03:15:22;;;;;;;24.42;10.52;;;4.40;99.90;;;;;;4948074;28;20047;-87
2022/11/22 03:17:48;;;;;;;23.48;11.68;;;4.30;99.90;;;;;;4976276;28;20074;-86
2022/11/22 03:20:13;;;;;;;21.70;11.18;;;4.40;99.90;;;;;;4961581;28;20071;-87
2022/11/22 03:22:40;;;;;;;23.27;11.13;;;4.40;99.90;;;;;;4977438;28;20035;-87
2022/11/22 03:25:06;;;;;;;24.20;11.85;;;4.40;99.90;;;;;;4939629;28;20039;-88
2022/11/22 03:27:31;;;;;;;25.80;12.20;;;4.40;99.90;;;;;;4968718;28;20066;-87
2022/11/22 03:29:57;;;;;;;24.00;12.93;;;4.40;99.90;;;;;;4969441;28;20511;-88
2022/11/22 03:32:22;;;;;;;22.63;11.25;;;4.40;99.90;;;;;;4960852;28;20377;-87
2022/11/22 03:34:48;;;;;;;29.05;12.75;;;4.40;99.90;;;;;;4942361;28;20435;-86
2022/11/22 03:37:14;;;;;;;24.13;10.82;;;4.40;99.90;;;;;;4940189;28;20098;-87
2022/11/22 03:39:39;;;;;;;22.40;10.55;;;4.50;99.90;;;;;;4950670;28;20081;-87
2022/11/22 03:42:05;;;;;;;26.20;13.73;;;4.50;99.90;;;;;;4936905;28;20075;-87
2022/11/22 03:44:30;;;;;;;23.38;12.52;;;4.50;99.90;;;;;;4963086;28;20038;-87
2022/11/22 03:46:56;;;;;;;23.25;11.55;;;4.50;99.90;;;;;;4943696;28;20051;-88
2022/11/22 03:49:21;;;;;;;21.10;10.50;;;4.50;99.90;;;;;;4962119;28;20089;-87
2022/11/22 03:51:47;;;;;;;25.88;12.88;;;4.50;99.90;;;;;;4938891;28;20105;-87
2022/11/22 03:54:13;;;;;;;23.48;11.88;;;4.50;99.90;;;;;;4945953;28;20039;-88
2022/11/22 03:56:38;;;;;;;25.67;12.60;;;4.60;99.90;;;;;;4963105;28;20042;-87
2022/11/22 03:59:04;;;;;;;25.67;12.43;;;4.60;99.90;;;;;;4949047;28;20051;-88
2022/11/22 04:01:29;;;;;;;25.23;11.43;;;4.50;99.90;;;;;;4942989;28;20122;-88
2022/11/22 04:03:55;;;;;;;25.83;11.25;;;4.60;99.90;;;;;;4966656;28;20078;-87
2022/11/22 04:06:21;;;;;;;21.60;10.88;;;4.60;99.90;;;;;;4962977;28;20054;-87
2022/11/22 04:08:47;;;;;;;22.45;11.60;;;4.60;99.90;;;;;;4944549;28;20047;-86
2022/11/22 04:11:12;;;;;;;18.83;10.73;;;4.60;99.90;;;;;;4956772;28;20043;-87
2022/11/22 04:16:22;;;;;;;21.20;10.95;;;4.60;99.90;;;;;;4965241;28;20043;-87
2022/11/22 04:18:48;;;;;;;22.60;11.55;;;4.60;99.90;;;;;;4957781;28;20072;-87
2022/11/22 04:26:42;;;;;;;20.77;10.70;;;4.70;99.90;;;;;;4958758;28;20142;-87
2022/11/22 04:29:07;;;;;;;19.15;10.93;;;4.70;99.90;;;;;;4958387;28;20134;-87
2022/11/22 04:34:17;;;;;;;24.60;11.38;;;4.80;99.90;;;;;;4947410;28;20089;-87
2022/11/22 04:36:43;;;;;;;20.40;10.07;;;4.70;99.90;;;;;;4939377;28;20479;-87
2022/11/22 04:39:08;;;;;;;22.27;11.65;;;4.80;99.90;;;;;;4964780;28;20043;-87
2022/11/22 04:41:34;;;;;;;22.67;12.05;;;4.80;99.90;;;;;;4949059;28;20476;-87
2022/11/22 04:46:43;;;;;;;22.67;11.85;;;4.80;99.90;;;;;;4959059;28;20069;-87
2022/11/22 04:49:09;;;;;;;23.33;11.68;;;4.80;99.90;;;;;;4937553;28;20432;-87
2022/11/22 04:54:19;;;;;;;25.70;12.73;;;4.90;99.90;;;;;;4940096;28;20047;-86
2022/11/22 04:56:44;;;;;;;25.60;12.30;;;4.90;99.90;;;;;;4940864;28;20046;-87
2022/11/22 04:59:10;;;;;;;23.70;12.48;;;4.90;99.90;;;;;;4923492;28;20051;-87
2022/11/22 05:01:35;;;;;;;26.13;15.02;;;5.00;99.90;;;;;;4942761;28;20054;-88
2022/11/22 05:04:01;;;;;;;21.63;11.27;;;4.90;99.90;;;;;;4921971;29;20163;-87
2022/11/22 05:06:27;;;;;;;23.67;10.65;;;4.90;99.90;;;;;;4944238;28;20047;-87
2022/11/22 05:08:52;;;;;;;21.27;11.55;;;5.00;99.90;;;;;;4958500;28;20551;-87
2022/11/22 05:11:18;;;;;;;24.30;13.02;;;5.00;99.90;;;;;;4936933;28;20092;-87
2022/11/22 05:13:44;;;;;;;22.67;11.55;;;5.00;99.90;;;;;;4934502;28;20058;-87
2022/11/22 05:16:12;;;;;;;24.02;11.45;;;5.00;99.90;;;;;;4957745;28;20410;-86
2022/11/22 05:18:37;;;;;;;19.00;10.52;;;5.00;99.90;;;;;;4936969;28;20122;-87
2022/11/22 05:21:11;;;;;;;20.55;11.48;;;5.10;99.90;;;;;;4954718;28;20129;-87
2022/11/22 05:23:53;;;;;;;18.40;10.32;;;5.10;99.90;;;;;;4958303;28;20055;-87
2022/11/22 05:26:34;;;;;;;21.13;11.35;;;5.10;99.90;;;;;;4950623;28;20070;-86
2022/11/22 05:29:08;;;;;;;24.50;11.43;;;5.10;99.90;;;;;;4945760;28;20122;-87
2022/11/22 05:31:37;;;;;;;20.92;10.57;;;5.10;99.90;;;;;;4968633;28;20050;-87
2022/11/22 05:34:04;;;;;;;20.42;9.38;;;5.10;99.90;;;;;;4978207;28;20087;-88
2022/11/22 05:36:31;;;;;;;24.23;12.02;;;5.10;99.90;;;;;;4958798;28;20046;-87
2022/11/22 05:38:57;;;;;;;24.77;13.75;;;5.10;99.90;;;;;;4943876;28;20582;-88
2022/11/22 05:41:23;;;;;;;22.65;12.02;;;5.10;99.90;;;;;;4948280;28;20129;-88
2022/11/22 05:43:48;;;;;;;20.17;12.02;;;5.20;99.90;;;;;;4947437;28;20126;-87
2022/11/22 05:46:14;;;;;;;19.77;12.63;;;5.20;99.90;;;;;;4944315;28;20106;-87
2022/11/22 05:48:42;;;;;;;19.67;10.18;;;5.20;99.90;;;;;;4967920;28;20054;-88
2022/11/22 05:51:11;;;;;;;21.33;10.32;;;5.20;99.90;;;;;;4940905;28;20117;-89
2022/11/22 05:53:37;;;;;;;19.15;9.13;;;5.20;99.90;;;;;;4958174;28;20046;-87
2022/11/22 05:56:11;;;;;;;24.13;10.85;;;5.20;99.90;;;;;;4943753;28;20046;-88
2022/11/22 05:58:37;;;;;;;23.60;12.35;;;5.20;99.90;;;;;;4933240;28;20741;-87
2022/11/22 06:01:07;;;;;;;21.00;10.18;;;5.30;99.90;;;;;;4945536;28;20035;-87
2022/11/22 06:03:34;;;;;;;16.10;9.55;;;5.20;99.90;;;;;;4941541;28;20451;-87
2022/11/22 06:06:00;;;;;;;19.77;10.05;;;5.30;99.90;;;;;;4961287;28;20424;-86
2022/11/22 06:08:29;;;;;;;18.63;9.27;;;5.30;99.90;;;;;;4946365;28;20094;-88
2022/11/22 06:10:55;;;;;;;18.83;10.40;;;5.30;99.90;;;;;;4950298;28;20043;-87
2022/11/22 06:13:20;;;;;;;18.83;10.18;;;5.30;99.90;;;;;;4943318;28;20147;-87
2022/11/22 06:15:46;;;;;;;19.48;10.20;;;5.30;99.90;;;;;;4963866;28;20129;-88
2022/11/22 06:18:11;;;;;;;19.10;9.05;;;5.30;99.90;;;;;;4928344;28;20046;-87
2022/11/22 06:20:37;;;;;;;20.33;8.98;;;5.40;99.90;;;;;;4950132;28;20388;-87
2022/11/22 06:23:02;;;;;;;17.52;9.23;;;5.40;99.90;;;;;;4964699;28;20101;-89
2022/11/22 06:25:28;;;;;;;17.70;9.52;;;5.40;99.90;;;;;;4952216;28;20401;-89
2022/11/22 06:27:57;;;;;;;14.95;8.77;;;5.30;99.90;;;;;;4947913;28;20105;-88
2022/11/22 06:30:23;;;;;;;17.92;8.82;;;5.30;99.90;;;;;;4942037;28;20551;-88
2022/11/22 06:32:48;;;;;;;18.63;8.85;;;5.30;99.90;;;;;;4964580;28;20159;-88
2022/11/22 06:35:14;;;;;;;17.88;9.65;;;5.30;99.90;;;;;;4948179;28;20051;-88
2022/11/22 06:37:39;;;;;;;16.35;8.48;;;5.30;99.90;;;;;;4962041;28;20371;-87
2022/11/22 06:40:10;;;;;;;16.00;8.10;;;5.30;99.90;;;;;;4967049;28;20051;-87
2022/11/22 06:42:36;;;;;;;19.13;9.27;;;5.30;99.90;;;;;;4946199;28;20291;-88
2022/11/22 06:45:02;;;;;;;18.73;8.23;;;5.20;99.90;;;;;;4961016;28;20278;-88
2022/11/22 06:47:27;;;;;;;17.45;8.18;;;5.20;99.90;;;;;;4941170;28;20055;-87
2022/11/22 06:49:53;;;;;;;17.75;7.10;;;5.20;99.90;;;;;;4966777;28;20148;-87
2022/11/22 06:52:18;;;;;;;17.83;7.65;;;5.20;99.90;;;;;;4942264;28;20489;-87
2022/11/22 06:54:44;;;;;;;21.20;7.93;;;5.20;99.90;;;;;;4946721;28;20041;-86
2022/11/22 06:57:12;;;;;;;15.50;7.68;;;5.10;99.90;;;;;;4926488;28;20046;-86
2022/11/22 06:59:38;;;;;;;16.67;7.57;;;5.00;99.90;;;;;;4942550;28;20074;-86
2022/11/22 07:02:03;;;;;;;18.52;7.70;;;5.00;99.90;;;;;;4929989;28;20667;-86
2022/11/22 07:04:29;;;;;;;22.23;8.10;;;5.00;99.90;;;;;;4931543;29;20106;-86
2022/11/22 07:06:55;;;;;;;16.45;8.52;;;5.00;99.90;;;;;;4967268;28;20089;-86
2022/11/22 07:09:20;;;;;;;15.68;7.90;;;4.90;99.90;;;;;;4939959;28;20122;-86
2022/11/22 07:11:46;;;;;;;17.65;7.82;;;4.90;99.90;;;;;;4945995;28;20047;-86
2022/11/22 07:14:11;;;;;;;16.95;7.22;;;4.90;99.90;;;;;;4945702;28;20130;-85
2022/11/22 07:16:37;;;;;;;19.27;7.35;;;5.00;99.90;;;;;;4957429;28;20054;-87
2022/11/22 07:19:04;;;;;;;15.88;7.82;;;5.00;99.90;;;;;;4961177;28;20611;-84
2022/11/22 07:21:31;;;;;;;18.33;7.47;;;5.00;99.90;;;;;;4948520;28;20043;-90
2022/11/22 07:23:56;;;;;;;21.35;7.85;;;5.00;99.90;;;;;;4951925;28;20479;-92
2022/11/22 07:26:24;;;;;;;16.85;7.32;;;5.00;99.90;;;;;;4962841;28;20082;-86
2022/11/22 07:28:50;;;;;;;18.60;7.47;;;5.00;99.90;;;;;;4946850;28;20046;-86
2022/11/22 07:31:16;;;;;;;17.23;6.63;;;5.00;99.90;;;;;;4948882;28;20361;-86
2022/11/22 07:33:42;;;;;;;18.67;7.32;;;5.00;99.90;;;;;;4944488;28;20054;-86
2022/11/22 07:36:17;;;;;;;16.77;6.50;;;5.00;99.90;;;;;;4944125;29;20122;-86
2022/11/22 07:38:44;;;;;;;12.93;6.13;;;5.00;99.90;;;;;;4962551;28;20463;-84
2022/11/22 07:41:10;;;;;;;15.68;6.35;;;5.00;99.90;;;;;;4955839;28;20485;-86
2022/11/22 07:43:36;;;;;;;17.30;5.80;;;5.00;99.90;;;;;;4942098;28;20129;-86
2022/11/22 07:46:04;;;;;;;16.40;5.70;;;5.00;99.90;;;;;;4962930;28;20049;-84
2022/11/22 07:48:30;;;;;;;19.17;5.70;;;5.00;99.90;;;;;;4950052;28;20184;-85
2022/11/22 07:50:55;;;;;;;17.65;6.07;;;5.00;99.90;;;;;;4945340;28;20488;-84
2022/11/22 07:53:21;;;;;;;17.80;5.75;;;5.00;99.90;;;;;;4943803;28;20488;-83
2022/11/22 07:55:47;;;;;;;21.92;6.65;;;5.00;99.90;;;;;;4946596;28;20038;-87
2022/11/22 07:58:12;;;;;;;14.65;4.60;;;5.00;99.90;;;;;;4938298;28;20057;-86
2022/11/22 08:00:39;;;;;;;17.70;5.20;;;5.00;99.90;;;;;;4945697;28;20053;-86
2022/11/22 08:03:06;;;;;;;17.20;5.45;;;5.00;99.90;;;;;;4941546;28;20611;-87
2022/11/22 08:05:32;;;;;;;17.15;5.45;;;5.00;99.90;;;;;;4947860;28;20038;-86
2022/11/22 08:07:57;;;;;;;14.27;4.82;;;5.00;99.90;;;;;;4962240;28;20050;-86
2022/11/22 08:10:23;;;;;;;18.85;5.85;;;5.00;99.90;;;;;;4954639;28;20163;-86
2022/11/22 08:12:48;;;;;;;16.50;6.03;;;5.00;99.90;;;;;;4936198;28;20449;-86
2022/11/22 08:15:16;;;;;;;15.57;4.85;;;5.00;99.90;;;;;;4934193;28;20038;-86
2022/11/22 08:17:41;;;;;;;14.90;4.90;;;5.00;99.90;;;;;;4942373;29;20102;-86
2022/11/22 08:20:08;;;;;;;14.35;4.38;;;5.00;99.90;;;;;;4944760;28;20043;-86
2022/11/22 08:22:35;;;;;;;12.02;3.75;;;5.00;99.90;;;;;;4945751;28;20077;-86
2022/11/22 08:25:01;;;;;;;12.60;4.50;;;5.00;99.90;;;;;;4939993;28;20221;-86
2022/11/22 08:27:26;;;;;;;13.27;3.95;;;5.00;99.90;;;;;;4956623;28;20118;-87
2022/11/22 08:29:52;;;;;;;13.07;3.83;;;5.10;99.90;;;;;;4937800;28;20098;-86
2022/11/22 08:32:18;;;;;;;13.73;4.85;;;5.10;99.90;;;;;;4959210;28;20147;-87
2022/11/22 08:34:44;;;;;;;12.90;4.15;;;5.10;99.90;;;;;;4945512;28;20098;-87
2022/11/22 08:37:09;;;;;;;11.38;3.72;;;5.10;99.90;;;;;;4957627;28;20055;-87
2022/11/22 08:39:35;;;;;;;14.32;3.75;;;5.10;99.90;;;;;;4945064;28;20058;-88
2022/11/22 08:42:00;;;;;;;12.02;3.58;;;5.20;99.90;;;;;;4959655;28;20038;-86
2022/11/22 08:44:26;;;;;;;12.77;3.40;;;5.20;99.90;;;;;;4945734;28;20061;-88
2022/11/22 08:46:51;;;;;;;12.02;3.45;;;5.20;99.90;;;;;;4956518;28;20478;-88
2022/11/22 08:49:17;;;;;;;16.08;3.60;;;5.30;99.90;;;;;;4961381;28;20050;-87
2022/11/22 08:51:44;;;;;;;13.80;4.10;;;5.30;99.90;;;;;;4960078;28;20039;-86
2022/11/22 08:54:13;;;;;;;14.00;3.42;;;5.30;99.90;;;;;;4937940;28;20043;-90
2022/11/22 08:56:40;;;;;;;11.48;2.92;;;5.40;99.90;;;;;;4958992;28;20059;-87
2022/11/22 08:59:05;;;;;;;11.43;2.97;;;5.50;99.90;;;;;;4958838;28;20623;-88
2022/11/22 09:01:32;;;;;;;12.82;3.33;;;5.50;99.90;;;;;;4943483;28;20444;-88
2022/11/22 09:03:57;;;;;;;11.73;3.40;;;5.60;99.90;;;;;;4937582;28;20130;-88
2022/11/22 09:06:23;;;;;;;15.82;3.50;;;5.60;99.90;;;;;;4943920;28;20463;-88
2022/11/22 09:08:49;;;;;;;13.55;3.30;;;5.60;99.90;;;;;;4943089;28;20926;-88
2022/11/22 09:11:18;;;;;;;15.07;3.28;;;5.70;99.90;;;;;;4940476;28;20126;-87
2022/11/22 09:13:44;;;;;;;10.70;3.45;;;5.70;99.90;;;;;;4940830;28;20082;-87
2022/11/22 09:16:15;;;;;;;10.90;3.10;;;5.80;99.90;;;;;;4955433;28;20063;-88
2022/11/22 09:18:41;;;;;;;11.10;3.10;;;5.90;99.90;;;;;;4950002;28;20510;-88
2022/11/22 09:21:14;;;;;;;12.68;3.53;;;6.00;99.90;;;;;;4945360;28;20074;-87
2022/11/22 09:23:44;;;;;;;12.73;3.15;;;6.10;99.90;;;;;;4949974;28;20031;-88
2022/11/22 09:26:28;;;;;;;16.33;3.92;;;6.10;99.90;;;;;;4944886;28;20061;-88
2022/11/22 09:28:56;;;;;;;12.77;3.40;;;6.20;99.90;;;;;;4944687;28;20050;-87
2022/11/22 09:31:23;;;;;;;13.98;4.10;;;6.20;99.90;;;;;;4945443;28;20069;-87
2022/11/22 09:33:49;;;;;;;10.55;3.25;;;6.20;99.90;;;;;;4945655;28;20038;-88
2022/11/22 09:36:17;;;;;;;12.80;3.47;;;6.30;99.90;;;;;;4958128;28;20381;-88
2022/11/22 09:38:42;;;;;;;16.60;3.95;;;6.30;99.90;;;;;;4947655;28;20042;-87
2022/11/22 09:41:29;;;;;;;14.75;3.72;;;6.40;99.90;;;;;;4947027;28;20074;-88
2022/11/22 09:44:10;;;;;;;14.32;3.33;;;6.40;99.90;;;;;;4940723;28;20079;-87
2022/11/22 09:46:44;;;;;;;16.73;3.70;;;6.50;99.90;;;;;;4969018;28;20411;-88
2022/11/22 09:49:22;;;;;;;8.95;3.13;;;6.50;99.90;;;;;;4942465;28;20065;-87
2022/11/22 09:52:14;;;;;;;11.48;3.55;;;6.60;99.90;;;;;;4943613;28;20451;-87
2022/11/22 09:54:51;;;;;;;10.15;3.17;;;6.60;99.90;;;;;;4961383;28;20488;-87
2022/11/22 09:57:29;;;;;;;13.25;3.10;;;6.60;99.90;;;;;;4945592;28;20521;-88
2022/11/22 10:00:04;;;;;;;7.85;3.22;;;6.60;99.90;;;;;;4946318;28;20038;-89
2022/11/22 10:02:39;;;;;;;11.25;3.17;;;6.70;99.90;;;;;;4959239;28;20050;-90
2022/11/22 10:05:23;;;;;;;10.93;2.67;;;6.70;99.90;;;;;;4967822;28;20110;-88
2022/11/22 10:08:06;;;;;;;11.20;2.88;;;6.70;99.90;;;;;;4961988;28;20392;-88
2022/11/22 10:10:39;;;;;;;11.68;3.05;;;6.80;99.90;;;;;;4946653;28;20055;-90
2022/11/22 10:13:16;;;;;;;8.43;3.38;;;6.80;99.90;;;;;;4940587;28;20050;-89
2022/11/22 10:16:11;;;;;;;12.18;2.85;;;6.80;99.90;;;;;;4923733;28;20977;-91
2022/11/22 10:18:49;;;;;;;7.85;2.63;;;6.80;99.90;;;;;;4944994;28;20109;-89
2022/11/22 10:21:15;;;;;;;14.32;4.13;;;6.90;99.90;;;;;;4963575;28;20125;-93
2022/11/22 10:23:41;;;;;;;9.30;2.65;;;7.00;99.90;;;;;;4944825;28;20126;-89
2022/11/22 10:26:27;;;;;;;8.93;2.63;;;7.00;99.90;;;;;;4957772;28;20091;-93
2022/11/22 10:29:31;;;;;;;12.95;2.67;;;7.00;99.90;;;;;;4941337;28;20130;-92
2022/11/22 10:32:22;;;;;;;12.65;3.40;;;7.00;99.90;;;;;;4979116;28;20396;-90
2022/11/22 10:35:12;;;;;;;12.32;3.08;;;7.10;99.90;;;;;;4961928;28;20042;-91
2022/11/22 10:38:27;;;;;;;11.82;2.67;;;7.10;99.90;;;;;;4960477;28;20122;-89
2022/11/22 10:41:12;;;;;;;8.70;2.40;;;7.10;99.90;;;;;;4932094;28;20072;-90
2022/11/22 10:44:03;;;;;;;11.48;2.70;;;7.10;99.90;;;;;;4967113;28;20097;-91
2022/11/22 10:46:55;;;;;;;10.02;2.53;;;7.10;99.90;;;;;;4895469;29;20063;-90
2022/11/22 10:49:39;;;;;;;9.98;2.95;;;7.10;99.90;;;;;;4895022;29;20059;-89
2022/11/22 10:52:19;;;;;;;10.18;2.47;;;7.10;99.90;;;;;;4893892;29;20060;-88
2022/11/22 10:55:21;;;;;;;8.93;2.63;;;7.10;99.90;;;;;;4895926;29;20055;-91
2022/11/22 10:57:55;;;;;;;;;;;7.20;99.90;;;;;;4892851;29;20628;-89
2022/11/22 11:00:24;;;;;;;11.02;2.67;;;7.10;99.90;;;;;;4884655;29;19929;-91
2022/11/22 11:02:58;;;;;;;9.57;3.30;;;7.20;99.90;;;;;;4879715;29;20059;-90
2022/11/22 11:05:50;;;;;;;11.07;2.22;;;7.30;99.90;;;;;;4890000;29;20044;-90
2022/11/22 11:08:28;;;;;;;6.80;2.03;;;7.30;99.90;;;;;;4909273;29;20100;-96
2022/11/22 11:10:54;;;;;;;7.40;2.50;;;7.40;99.90;;;;;;4900390;29;20520;-92
2022/11/22 11:13:27;;;;;;;9.50;2.10;;;7.40;99.90;;;;;;4911297;29;20051;-92
2022/11/22 11:15:55;;;;;;;11.90;3.65;;;7.40;99.90;;;;;;4896252;29;20591;-90
2022/11/22 11:18:26;;;;;;;7.82;2.10;;;7.40;99.90;;;;;;4895480;29;20048;-89
2022/11/22 11:20:52;;;;;;;6.40;2.05;;;7.40;99.90;;;;;;4915097;29;20080;-90
2022/11/22 11:23:18;;;;;;;11.10;3.15;;;7.40;99.90;;;;;;4920017;28;20054;-90
2022/11/22 11:25:46;;;;;;;6.65;1.95;;;7.50;99.90;;;;;;4964028;28;20047;-91
2022/11/22 11:28:26;;;;;;;8.50;2.22;;;7.40;99.90;;;;;;4966096;28;20054;-89
2022/11/22 11:31:40;;;;;;;7.82;2.17;;;7.40;99.90;;;;;;4975129;28;20122;-89
2022/11/22 11:34:29;;;;;;;5.80;1.88;;;7.50;99.90;;;;;;4950604;28;20402;-92
2022/11/22 11:36:59;;;;;;;10.30;2.42;;;7.50;99.90;;;;;;4955459;28;20061;-89
2022/11/22 11:39:32;;;;;;;9.25;2.30;;;7.50;99.90;;;;;;4948020;28;20035;-90
2022/11/22 11:41:59;;;;;;;8.38;2.38;;;7.60;99.90;;;;;;4964805;28;20042;-88
2022/11/22 11:44:33;;;;;;;11.52;3.35;;;7.60;99.90;;;;;;4951200;28;20099;-92
2022/11/22 11:46:59;;;;;;;11.48;2.95;;;7.70;99.90;;;;;;4962648;28;20078;-90
2022/11/22 11:49:30;;;;;;;9.27;2.42;;;7.70;99.90;;;;;;4939012;28;20042;-92
2022/11/22 11:52:27;;;;;;;9.98;2.72;;;7.70;99.90;;;;;;4925092;28;20138;-90
2022/11/22 11:54:55;;;;;;;8.48;2.03;;;7.70;99.90;;;;;;4936591;28;20066;-91
2022/11/22 11:57:34;;;;;;;12.48;2.25;;;7.70;99.90;;;;;;4942498;28;20070;-94
2022/11/22 12:00:03;;;;;;;9.10;2.63;;;7.80;99.90;;;;;;4967880;28;20055;-90
2022/11/22 12:02:38;;;;;;;6.00;1.77;;;7.80;99.90;;;;;;4959797;28;20473;-90
2022/11/22 12:05:12;;;;;;;7.93;1.58;;;7.80;99.90;;;;;;4959091;28;20078;-90
2022/11/22 12:07:43;;;;;;;10.43;2.70;;;7.80;99.90;;;;;;4943180;28;20082;-89
2022/11/22 12:10:26;;;;;;;11.73;2.40;;;7.80;99.90;;;;;;4948823;28;20042;-89
2022/11/22 12:13:03;;;;;;;11.80;2.47;;;7.80;99.90;;;;;;4944893;29;20047;-90
2022/11/22 12:15:51;;;;;;;7.03;1.60;;;7.90;99.90;;;;;;4948551;28;20043;-91
2022/11/22 12:18:54;;;;;;;10.52;2.45;;;7.90;99.90;;;;;;5000569;28;20039;-89
2022/11/22 12:21:31;;;;;;;9.43;2.58;;;8.00;99.90;;;;;;4935596;28;20047;-90
2022/11/22 12:24:36;;;;;;;9.80;2.08;;;8.00;99.90;;;;;;4934245;28;20043;-91
2022/11/22 12:27:02;;;;;;;8.05;2.33;;;8.00;99.90;;;;;;4970948;28;20055;-92
2022/11/22 12:29:32;;;;;;;7.40;1.80;;;8.00;99.90;;;;;;4923954;28;20110;-89
2022/11/22 12:32:11;;;;;;;11.00;2.80;;;8.00;99.90;;;;;;4958448;28;20086;-90
2022/11/22 12:34:49;;;;;;;10.68;2.75;;;8.00;99.90;;;;;;4941318;28;20062;-92
2022/11/22 12:37:29;;;;;;;9.00;2.58;;;8.00;99.90;;;;;;4956243;28;20062;-94
2022/11/22 12:40:00;;;;;;;6.63;1.80;;;8.10;99.90;;;;;;4942449;28;20051;-90
2022/11/22 12:42:31;;;;;;;6.82;1.80;;;8.00;99.90;;;;;;4943641;28;20042;-89
2022/11/22 12:45:04;;;;;;;7.85;1.60;;;8.00;99.90;;;;;;4942695;28;20089;-92
2022/11/22 12:47:34;;;;;;;10.30;2.58;;;7.90;99.90;;;;;;4962701;28;20046;-90
2022/11/22 12:50:23;;;;;;;5.38;2.00;;;7.90;99.90;;;;;;4944949;28;20038;-90
2022/11/22 12:53:03;;;;;;;8.98;1.83;;;7.90;99.90;;;;;;4963601;28;20046;-91
2022/11/22 12:56:03;;;;;;;9.15;2.33;;;7.90;99.90;;;;;;4939177;29;20461;-91
2022/11/22 12:58:42;;;;;;;5.72;1.55;;;7.90;99.90;;;;;;4937758;28;20054;-89
2022/11/22 13:01:10;;;;;;;6.53;2.05;;;7.80;99.90;;;;;;4955342;28;20560;-92
2022/11/22 13:04:05;;;;;;;7.65;1.75;;;7.80;99.90;;;;;;4948145;28;20109;-91
2022/11/22 13:06:52;;;;;;;8.75;2.50;;;7.80;99.90;;;;;;4946007;28;20051;-92
2022/11/22 13:09:22;;;;;;;7.07;1.98;;;7.80;99.90;;;;;;4945600;28;20047;-91
2022/11/22 13:11:57;;;;;;;7.45;1.60;;;7.80;99.90;;;;;;4956476;28;20035;-89
2022/11/22 13:14:54;;;;;;;6.65;1.77;;;7.70;99.90;;;;;;4941834;28;20047;-89
2022/11/22 13:17:23;;;;;;;8.02;2.20;;;7.70;99.90;;;;;;4938225;28;20058;-91